sensor_id;sensor_type;location;lat;lon;timestamp;P1;durP1;ratioP1;P2;durP2;ratioP2
14619;SDS011;32125;48.518;9.050;2022-07-29T00:01:00;9.73;;;8.73;;
14619;SDS011;32125;48.518;9.050;2022-07-29T00:03:27;10.00;;;8.70;;
14619;SDS011;32125;48.518;9.050;2022-07-29T00:05:52;9.20;;;8.40;;
14619;SDS011;32125;48.518;9.050;2022-07-29T00:08:20;10.13;;;9.10;;
14619;SDS011;32125;48.518;9.050;2022-07-29T00:10:46;9.07;;;8.33;;
14619;SDS011;32125;48.518;9.050;2022-07-29T00:13:14;9.90;;;8.90;;
14619;SDS011;32125;48.518;9.050;2022-07-29T00:15:40;9.93;;;8.97;;
14619;SDS011;32125;48.518;9.050;2022-07-29T00:18:06;8.57;;;7.77;;
14619;SDS011;32125;48.518;9.050;2022-07-29T00:20:32;8.93;;;8.03;;
14619;SDS011;32125;48.518;9.050;2022-07-29T00:22:58;9.83;;;8.93;;
14619;SDS011;32125;48.518;9.050;2022-07-29T00:25:25;9.47;;;8.50;;
14619;SDS011;32125;48.518;9.050;2022-07-29T00:27:54;9.90;;;8.20;;
14619;SDS011;32125;48.518;9.050;2022-07-29T00:30:20;9.60;;;8.50;;
14619;SDS011;32125;48.518;9.050;2022-07-29T00:32:46;8.15;;;7.45;;
14619;SDS011;32125;48.518;9.050;2022-07-29T00:35:16;9.20;;;8.20;;
14619;SDS011;32125;48.518;9.050;2022-07-29T00:38:00;9.20;;;8.30;;
14619;SDS011;32125;48.518;9.050;2022-07-29T00:40:26;9.27;;;8.47;;
14619;SDS011;32125;48.518;9.050;2022-07-29T00:42:54;9.17;;;8.37;;
14619;SDS011;32125;48.518;9.050;2022-07-29T00:45:20;8.97;;;8.17;;
14619;SDS011;32125;48.518;9.050;2022-07-29T00:47:48;8.93;;;8.07;;
14619;SDS011;32125;48.518;9.050;2022-07-29T00:50:14;9.47;;;8.57;;
14619;SDS011;32125;48.518;9.050;2022-07-29T00:52:40;8.63;;;7.93;;
14619;SDS011;32125;48.518;9.050;2022-07-29T00:55:08;8.47;;;7.67;;
14619;SDS011;32125;48.518;9.050;2022-07-29T00:57:36;8.90;;;7.53;;
14619;SDS011;32125;48.518;9.050;2022-07-29T01:00:03;9.30;;;8.50;;
14619;SDS011;32125;48.518;9.050;2022-07-29T01:02:31;8.57;;;7.70;;
14619;SDS011;32125;48.518;9.050;2022-07-29T01:04:58;8.70;;;8.00;;
14619;SDS011;32125;48.518;9.050;2022-07-29T01:07:24;8.90;;;8.00;;
14619;SDS011;32125;48.518;9.050;2022-07-29T01:09:51;8.20;;;7.50;;
14619;SDS011;32125;48.518;9.050;2022-07-29T01:12:21;8.33;;;7.63;;
14619;SDS011;32125;48.518;9.050;2022-07-29T01:14:49;8.03;;;7.30;;
14619;SDS011;32125;48.518;9.050;2022-07-29T01:30:56;7.80;;;7.13;;
14619;SDS011;32125;48.518;9.050;2022-07-29T01:33:27;8.03;;;7.33;;
14619;SDS011;32125;48.518;9.050;2022-07-29T01:36:16;8.47;;;6.80;;
14619;SDS011;32125;48.518;9.050;2022-07-29T01:39:08;9.90;;;7.60;;
14619;SDS011;32125;48.518;9.050;2022-07-29T01:41:36;7.50;;;6.90;;
14619;SDS011;32125;48.518;9.050;2022-07-29T01:44:15;7.43;;;6.83;;
14619;SDS011;32125;48.518;9.050;2022-07-29T01:46:44;7.20;;;6.60;;
14619;SDS011;32125;48.518;9.050;2022-07-29T01:49:22;7.43;;;6.63;;
14619;SDS011;32125;48.518;9.050;2022-07-29T01:54:34;7.37;;;6.70;;
14619;SDS011;32125;48.518;9.050;2022-07-29T01:57:03;7.70;;;7.03;;
14619;SDS011;32125;48.518;9.050;2022-07-29T01:59:31;7.70;;;7.00;;
14619;SDS011;32125;48.518;9.050;2022-07-29T02:02:02;8.67;;;7.10;;
14619;SDS011;32125;48.518;9.050;2022-07-29T02:04:28;7.17;;;6.57;;
14619;SDS011;32125;48.518;9.050;2022-07-29T02:06:56;7.20;;;6.60;;
14619;SDS011;32125;48.518;9.050;2022-07-29T02:09:27;6.83;;;6.13;;
14619;SDS011;32125;48.518;9.050;2022-07-29T02:11:56;7.47;;;6.60;;
14619;SDS011;32125;48.518;9.050;2022-07-29T02:14:26;7.53;;;6.93;;
14619;SDS011;32125;48.518;9.050;2022-07-29T02:16:54;7.43;;;6.73;;
14619;SDS011;32125;48.518;9.050;2022-07-29T02:19:23;7.00;;;6.47;;
14619;SDS011;32125;48.518;9.050;2022-07-29T02:21:51;7.10;;;6.40;;
14619;SDS011;32125;48.518;9.050;2022-07-29T02:24:18;6.90;;;6.20;;
14619;SDS011;32125;48.518;9.050;2022-07-29T02:26:46;6.30;;;5.80;;
14619;SDS011;32125;48.518;9.050;2022-07-29T02:29:14;6.50;;;6.00;;
14619;SDS011;32125;48.518;9.050;2022-07-29T02:31:41;6.80;;;6.20;;
14619;SDS011;32125;48.518;9.050;2022-07-29T02:34:09;6.60;;;5.90;;
14619;SDS011;32125;48.518;9.050;2022-07-29T02:36:36;6.30;;;5.77;;
14619;SDS011;32125;48.518;9.050;2022-07-29T02:39:03;5.80;;;5.40;;
14619;SDS011;32125;48.518;9.050;2022-07-29T02:41:35;6.13;;;5.50;;
14619;SDS011;32125;48.518;9.050;2022-07-29T02:44:10;5.80;;;5.30;;
14619;SDS011;32125;48.518;9.050;2022-07-29T02:46:50;5.60;;;5.10;;
14619;SDS011;32125;48.518;9.050;2022-07-29T02:52:26;5.57;;;5.00;;
14619;SDS011;32125;48.518;9.050;2022-07-29T02:55:16;6.80;;;5.10;;
14619;SDS011;32125;48.518;9.050;2022-07-29T02:57:44;5.57;;;5.00;;
14619;SDS011;32125;48.518;9.050;2022-07-29T03:00:17;5.13;;;4.60;;
14619;SDS011;32125;48.518;9.050;2022-07-29T03:02:48;5.17;;;4.70;;
14619;SDS011;32125;48.518;9.050;2022-07-29T03:05:18;5.77;;;5.27;;
14619;SDS011;32125;48.518;9.050;2022-07-29T03:07:47;6.97;;;5.60;;
14619;SDS011;32125;48.518;9.050;2022-07-29T03:10:16;6.13;;;5.57;;
14619;SDS011;32125;48.518;9.050;2022-07-29T03:12:43;5.43;;;5.03;;
14619;SDS011;32125;48.518;9.050;2022-07-29T03:15:10;6.60;;;5.47;;
14619;SDS011;32125;48.518;9.050;2022-07-29T03:17:38;6.47;;;5.93;;
14619;SDS011;32125;48.518;9.050;2022-07-29T03:20:05;7.43;;;5.73;;
14619;SDS011;32125;48.518;9.050;2022-07-29T03:22:38;7.87;;;5.83;;
14619;SDS011;32125;48.518;9.050;2022-07-29T03:25:17;6.60;;;6.00;;
14619;SDS011;32125;48.518;9.050;2022-07-29T03:27:47;7.13;;;5.83;;
14619;SDS011;32125;48.518;9.050;2022-07-29T03:30:15;7.20;;;5.70;;
14619;SDS011;32125;48.518;9.050;2022-07-29T03:32:41;6.13;;;5.63;;
14619;SDS011;32125;48.518;9.050;2022-07-29T03:35:07;6.77;;;6.20;;
14619;SDS011;32125;48.518;9.050;2022-07-29T03:37:35;6.80;;;6.20;;
14619;SDS011;32125;48.518;9.050;2022-07-29T03:40:02;7.27;;;6.27;;
14619;SDS011;32125;48.518;9.050;2022-07-29T03:42:31;6.70;;;6.20;;
14619;SDS011;32125;48.518;9.050;2022-07-29T03:45:05;7.83;;;6.87;;
14619;SDS011;32125;48.518;9.050;2022-07-29T03:47:34;9.33;;;7.70;;
14619;SDS011;32125;48.518;9.050;2022-07-29T03:50:02;8.77;;;7.87;;
14619;SDS011;32125;48.518;9.050;2022-07-29T03:52:32;8.53;;;7.57;;
14619;SDS011;32125;48.518;9.050;2022-07-29T03:54:58;8.50;;;7.57;;
14619;SDS011;32125;48.518;9.050;2022-07-29T03:57:24;8.07;;;7.47;;
14619;SDS011;32125;48.518;9.050;2022-07-29T03:59:52;7.57;;;6.97;;
14619;SDS011;32125;48.518;9.050;2022-07-29T04:02:19;7.30;;;6.70;;
14619;SDS011;32125;48.518;9.050;2022-07-29T04:04:45;6.43;;;5.93;;
14619;SDS011;32125;48.518;9.050;2022-07-29T04:07:14;7.30;;;6.70;;
14619;SDS011;32125;48.518;9.050;2022-07-29T04:09:40;6.77;;;6.27;;
14619;SDS011;32125;48.518;9.050;2022-07-29T04:12:06;8.23;;;7.53;;
14619;SDS011;32125;48.518;9.050;2022-07-29T04:14:35;8.13;;;7.43;;
14619;SDS011;32125;48.518;9.050;2022-07-29T04:17:02;8.37;;;7.57;;
14619;SDS011;32125;48.518;9.050;2022-07-29T04:19:29;7.47;;;6.87;;
14619;SDS011;32125;48.518;9.050;2022-07-29T04:21:58;7.50;;;6.87;;
14619;SDS011;32125;48.518;9.050;2022-07-29T04:24:24;7.20;;;6.60;;
14619;SDS011;32125;48.518;9.050;2022-07-29T04:26:50;7.03;;;6.43;;
14619;SDS011;32125;48.518;9.050;2022-07-29T04:29:16;7.80;;;7.03;;
14619;SDS011;32125;48.518;9.050;2022-07-29T04:31:42;7.27;;;6.67;;
14619;SDS011;32125;48.518;9.050;2022-07-29T04:34:09;7.60;;;7.00;;
14619;SDS011;32125;48.518;9.050;2022-07-29T04:36:35;7.57;;;6.97;;
14619;SDS011;32125;48.518;9.050;2022-07-29T04:39:01;7.63;;;7.03;;
14619;SDS011;32125;48.518;9.050;2022-07-29T04:41:29;7.60;;;6.90;;
14619;SDS011;32125;48.518;9.050;2022-07-29T04:43:55;7.63;;;7.00;;
14619;SDS011;32125;48.518;9.050;2022-07-29T04:46:21;7.17;;;6.60;;
14619;SDS011;32125;48.518;9.050;2022-07-29T04:48:47;7.63;;;6.93;;
14619;SDS011;32125;48.518;9.050;2022-07-29T04:51:16;7.17;;;6.57;;
14619;SDS011;32125;48.518;9.050;2022-07-29T04:53:42;6.83;;;6.33;;
14619;SDS011;32125;48.518;9.050;2022-07-29T04:56:07;9.17;;;6.97;;
14619;SDS011;32125;48.518;9.050;2022-07-29T04:58:39;7.67;;;6.97;;
14619;SDS011;32125;48.518;9.050;2022-07-29T05:01:05;7.30;;;6.60;;
14619;SDS011;32125;48.518;9.050;2022-07-29T05:03:31;7.30;;;6.70;;
14619;SDS011;32125;48.518;9.050;2022-07-29T05:05:56;6.83;;;6.23;;
14619;SDS011;32125;48.518;9.050;2022-07-29T05:08:24;7.80;;;6.70;;
14619;SDS011;32125;48.518;9.050;2022-07-29T05:10:50;6.80;;;6.20;;
14619;SDS011;32125;48.518;9.050;2022-07-29T05:13:16;6.60;;;6.10;;
14619;SDS011;32125;48.518;9.050;2022-07-29T05:15:41;8.40;;;6.90;;
14619;SDS011;32125;48.518;9.050;2022-07-29T05:18:07;7.80;;;7.10;;
14619;SDS011;32125;48.518;9.050;2022-07-29T05:20:33;7.33;;;6.63;;
14619;SDS011;32125;48.518;9.050;2022-07-29T05:23:02;6.87;;;6.37;;
14619;SDS011;32125;48.518;9.050;2022-07-29T05:25:28;6.70;;;6.20;;
14619;SDS011;32125;48.518;9.050;2022-07-29T05:27:55;6.40;;;5.80;;
14619;SDS011;32125;48.518;9.050;2022-07-29T05:30:23;7.03;;;6.33;;
14619;SDS011;32125;48.518;9.050;2022-07-29T05:32:49;7.00;;;6.30;;
14619;SDS011;32125;48.518;9.050;2022-07-29T05:35:15;7.87;;;7.10;;
14619;SDS011;32125;48.518;9.050;2022-07-29T05:37:42;6.43;;;5.80;;
14619;SDS011;32125;48.518;9.050;2022-07-29T05:40:08;6.33;;;5.73;;
14619;SDS011;32125;48.518;9.050;2022-07-29T05:42:34;6.20;;;5.70;;
14619;SDS011;32125;48.518;9.050;2022-07-29T05:45:01;7.33;;;6.73;;
14619;SDS011;32125;48.518;9.050;2022-07-29T05:47:28;6.30;;;5.80;;
14619;SDS011;32125;48.518;9.050;2022-07-29T05:49:54;7.50;;;6.80;;
14619;SDS011;32125;48.518;9.050;2022-07-29T05:52:20;6.43;;;5.93;;
14619;SDS011;32125;48.518;9.050;2022-07-29T05:54:46;7.00;;;6.20;;
14619;SDS011;32125;48.518;9.050;2022-07-29T05:57:17;6.50;;;5.90;;
14619;SDS011;32125;48.518;9.050;2022-07-29T05:59:44;6.80;;;5.83;;
14619;SDS011;32125;48.518;9.050;2022-07-29T06:02:10;6.40;;;5.87;;
14619;SDS011;32125;48.518;9.050;2022-07-29T06:04:38;7.47;;;6.13;;
14619;SDS011;32125;48.518;9.050;2022-07-29T06:07:06;5.57;;;5.07;;
14619;SDS011;32125;48.518;9.050;2022-07-29T06:09:32;5.93;;;5.43;;
14619;SDS011;32125;48.518;9.050;2022-07-29T06:12:01;5.97;;;5.50;;
14619;SDS011;32125;48.518;9.050;2022-07-29T06:14:27;6.10;;;5.47;;
14619;SDS011;32125;48.518;9.050;2022-07-29T06:16:53;5.27;;;4.70;;
14619;SDS011;32125;48.518;9.050;2022-07-29T06:19:23;6.37;;;5.07;;
14619;SDS011;32125;48.518;9.050;2022-07-29T06:21:49;6.07;;;4.80;;
14619;SDS011;32125;48.518;9.050;2022-07-29T06:24:15;7.60;;;5.00;;
14619;SDS011;32125;48.518;9.050;2022-07-29T06:26:44;5.60;;;4.90;;
14619;SDS011;32125;48.518;9.050;2022-07-29T06:29:10;7.20;;;4.67;;
14619;SDS011;32125;48.518;9.050;2022-07-29T06:31:35;5.63;;;4.50;;
14619;SDS011;32125;48.518;9.050;2022-07-29T06:34:02;5.00;;;4.60;;
14619;SDS011;32125;48.518;9.050;2022-07-29T06:36:28;5.15;;;4.50;;
14619;SDS011;32125;48.518;9.050;2022-07-29T06:38:54;5.63;;;4.20;;
14619;SDS011;32125;48.518;9.050;2022-07-29T06:41:20;4.43;;;4.03;;
14619;SDS011;32125;48.518;9.050;2022-07-29T06:43:47;4.60;;;3.65;;
14619;SDS011;32125;48.518;9.050;2022-07-29T06:46:14;3.50;;;3.20;;
14619;SDS011;32125;48.518;9.050;2022-07-29T06:48:42;2.90;;;2.70;;
14619;SDS011;32125;48.518;9.050;2022-07-29T06:51:10;3.20;;;2.90;;
14619;SDS011;32125;48.518;9.050;2022-07-29T06:53:38;3.00;;;2.80;;
14619;SDS011;32125;48.518;9.050;2022-07-29T06:56:05;3.60;;;3.30;;
14619;SDS011;32125;48.518;9.050;2022-07-29T06:58:34;3.88;;;3.42;;
14619;SDS011;32125;48.518;9.050;2022-07-29T07:01:02;6.10;;;3.75;;
14619;SDS011;32125;48.518;9.050;2022-07-29T07:03:29;5.97;;;3.75;;
14619;SDS011;32125;48.518;9.050;2022-07-29T07:05:55;4.20;;;3.70;;
14619;SDS011;32125;48.518;9.050;2022-07-29T07:08:24;6.95;;;4.10;;
14619;SDS011;32125;48.518;9.050;2022-07-29T07:10:50;4.80;;;4.38;;
14619;SDS011;32125;48.518;9.050;2022-07-29T07:13:16;5.15;;;3.80;;
14619;SDS011;32125;48.518;9.050;2022-07-29T07:15:45;3.90;;;3.60;;
14619;SDS011;32125;48.518;9.050;2022-07-29T07:18:14;4.40;;;4.00;;
14619;SDS011;32125;48.518;9.050;2022-07-29T07:20:42;5.05;;;3.70;;
14619;SDS011;32125;48.518;9.050;2022-07-29T07:23:10;3.78;;;3.47;;
14619;SDS011;32125;48.518;9.050;2022-07-29T07:25:38;3.78;;;3.47;;
14619;SDS011;32125;48.518;9.050;2022-07-29T07:28:05;3.70;;;3.40;;
14619;SDS011;32125;48.518;9.050;2022-07-29T07:30:33;3.72;;;3.42;;
14619;SDS011;32125;48.518;9.050;2022-07-29T07:32:59;6.78;;;3.72;;
14619;SDS011;32125;48.518;9.050;2022-07-29T07:35:28;4.40;;;4.00;;
14619;SDS011;32125;48.518;9.050;2022-07-29T07:37:55;4.00;;;3.20;;
14619;SDS011;32125;48.518;9.050;2022-07-29T07:40:25;3.38;;;3.17;;
14619;SDS011;32125;48.518;9.050;2022-07-29T07:42:53;4.03;;;3.53;;
14619;SDS011;32125;48.518;9.050;2022-07-29T07:45:19;3.55;;;3.25;;
14619;SDS011;32125;48.518;9.050;2022-07-29T07:47:47;3.53;;;3.20;;
14619;SDS011;32125;48.518;9.050;2022-07-29T07:50:13;3.80;;;3.50;;
14619;SDS011;32125;48.518;9.050;2022-07-29T07:55:14;5.28;;;3.08;;
14619;SDS011;32125;48.518;9.050;2022-07-29T07:57:45;2.97;;;2.75;;
14619;SDS011;32125;48.518;9.050;2022-07-29T08:00:11;3.17;;;2.97;;
14619;SDS011;32125;48.518;9.050;2022-07-29T08:02:39;4.18;;;2.67;;
14619;SDS011;32125;48.518;9.050;2022-07-29T08:05:08;3.40;;;3.10;;
14619;SDS011;32125;48.518;9.050;2022-07-29T08:07:34;4.88;;;2.90;;
14619;SDS011;32125;48.518;9.050;2022-07-29T08:10:02;2.90;;;2.70;;
14619;SDS011;32125;48.518;9.050;2022-07-29T08:12:29;4.40;;;2.97;;
14619;SDS011;32125;48.518;9.050;2022-07-29T08:14:59;3.75;;;2.97;;
14619;SDS011;32125;48.518;9.050;2022-07-29T08:17:25;3.88;;;2.88;;
14619;SDS011;32125;48.518;9.050;2022-07-29T08:19:54;5.28;;;3.45;;
14619;SDS011;32125;48.518;9.050;2022-07-29T08:22:19;4.40;;;2.92;;
14619;SDS011;32125;48.518;9.050;2022-07-29T08:24:45;3.50;;;2.90;;
14619;SDS011;32125;48.518;9.050;2022-07-29T08:27:20;3.30;;;2.78;;
14619;SDS011;32125;48.518;9.050;2022-07-29T08:29:46;3.22;;;2.90;;
14619;SDS011;32125;48.518;9.050;2022-07-29T08:32:12;3.70;;;3.40;;
14619;SDS011;32125;48.518;9.050;2022-07-29T08:34:38;3.80;;;2.90;;
14619;SDS011;32125;48.518;9.050;2022-07-29T08:37:04;4.63;;;3.30;;
14619;SDS011;32125;48.518;9.050;2022-07-29T08:39:30;3.65;;;3.35;;
14619;SDS011;32125;48.518;9.050;2022-07-29T08:41:56;4.05;;;3.10;;
14619;SDS011;32125;48.518;9.050;2022-07-29T08:44:22;3.30;;;2.95;;
14619;SDS011;32125;48.518;9.050;2022-07-29T08:46:51;3.65;;;3.20;;
14619;SDS011;32125;48.518;9.050;2022-07-29T08:49:20;3.42;;;3.10;;
14619;SDS011;32125;48.518;9.050;2022-07-29T08:51:45;3.60;;;3.30;;
14619;SDS011;32125;48.518;9.050;2022-07-29T08:54:18;4.57;;;3.42;;
14619;SDS011;32125;48.518;9.050;2022-07-29T08:56:50;3.38;;;3.08;;
14619;SDS011;32125;48.518;9.050;2022-07-29T08:59:17;3.55;;;3.00;;
14619;SDS011;32125;48.518;9.050;2022-07-29T09:01:47;3.13;;;2.92;;
14619;SDS011;32125;48.518;9.050;2022-07-29T09:04:17;6.75;;;3.22;;
14619;SDS011;32125;48.518;9.050;2022-07-29T09:06:46;3.10;;;2.90;;
14619;SDS011;32125;48.518;9.050;2022-07-29T09:09:12;4.15;;;3.08;;
14619;SDS011;32125;48.518;9.050;2022-07-29T09:11:39;3.28;;;3.00;;
14619;SDS011;32125;48.518;9.050;2022-07-29T09:14:06;3.33;;;3.00;;
14619;SDS011;32125;48.518;9.050;2022-07-29T09:16:53;3.30;;;3.00;;
14619;SDS011;32125;48.518;9.050;2022-07-29T09:19:21;2.90;;;2.70;;
14619;SDS011;32125;48.518;9.050;2022-07-29T09:21:47;3.28;;;2.58;;
14619;SDS011;32125;48.518;9.050;2022-07-29T09:24:22;4.68;;;3.00;;
14619;SDS011;32125;48.518;9.050;2022-07-29T09:26:49;4.57;;;3.15;;
14619;SDS011;32125;48.518;9.050;2022-07-29T09:29:19;4.07;;;2.90;;
14619;SDS011;32125;48.518;9.050;2022-07-29T09:31:46;6.78;;;3.15;;
14619;SDS011;32125;48.518;9.050;2022-07-29T09:34:14;3.50;;;3.20;;
14619;SDS011;32125;48.518;9.050;2022-07-29T09:36:42;4.53;;;3.40;;
14619;SDS011;32125;48.518;9.050;2022-07-29T09:39:09;6.32;;;3.03;;
14619;SDS011;32125;48.518;9.050;2022-07-29T09:41:46;3.35;;;3.00;;
14619;SDS011;32125;48.518;9.050;2022-07-29T09:44:13;3.45;;;2.80;;
14619;SDS011;32125;48.518;9.050;2022-07-29T09:46:39;3.60;;;3.25;;
14619;SDS011;32125;48.518;9.050;2022-07-29T09:49:16;4.30;;;3.25;;
14619;SDS011;32125;48.518;9.050;2022-07-29T09:51:45;4.22;;;3.40;;
14619;SDS011;32125;48.518;9.050;2022-07-29T09:54:28;7.10;;;3.40;;
14619;SDS011;32125;48.518;9.050;2022-07-29T09:56:59;4.10;;;3.80;;
14619;SDS011;32125;48.518;9.050;2022-07-29T09:59:25;5.72;;;3.28;;
14619;SDS011;32125;48.518;9.050;2022-07-29T10:01:51;3.40;;;3.10;;
14619;SDS011;32125;48.518;9.050;2022-07-29T10:04:18;4.75;;;3.42;;
14619;SDS011;32125;48.518;9.050;2022-07-29T10:06:57;6.53;;;3.35;;
14619;SDS011;32125;48.518;9.050;2022-07-29T10:09:24;6.55;;;3.45;;
14619;SDS011;32125;48.518;9.050;2022-07-29T10:12:03;3.55;;;3.25;;
14619;SDS011;32125;48.518;9.050;2022-07-29T10:14:38;3.72;;;3.28;;
14619;SDS011;32125;48.518;9.050;2022-07-29T10:17:04;3.63;;;3.33;;
14619;SDS011;32125;48.518;9.050;2022-07-29T10:19:36;5.07;;;3.22;;
14619;SDS011;32125;48.518;9.050;2022-07-29T10:22:06;5.80;;;3.30;;
14619;SDS011;32125;48.518;9.050;2022-07-29T10:24:36;4.88;;;3.20;;
14619;SDS011;32125;48.518;9.050;2022-07-29T10:27:03;5.00;;;3.20;;
14619;SDS011;32125;48.518;9.050;2022-07-29T10:29:30;3.60;;;3.30;;
14619;SDS011;32125;48.518;9.050;2022-07-29T10:32:07;5.10;;;3.05;;
14619;SDS011;32125;48.518;9.050;2022-07-29T10:37:21;3.78;;;3.10;;
14619;SDS011;32125;48.518;9.050;2022-07-29T10:39:55;4.70;;;3.20;;
14619;SDS011;32125;48.518;9.050;2022-07-29T10:42:47;3.28;;;2.97;;
14619;SDS011;32125;48.518;9.050;2022-07-29T10:45:16;5.57;;;3.25;;
14619;SDS011;32125;48.518;9.050;2022-07-29T10:47:42;3.92;;;2.90;;
14619;SDS011;32125;48.518;9.050;2022-07-29T10:50:09;4.18;;;3.28;;
14619;SDS011;32125;48.518;9.050;2022-07-29T10:58:10;3.45;;;3.00;;
14619;SDS011;32125;48.518;9.050;2022-07-29T11:00:48;3.72;;;3.28;;
14619;SDS011;32125;48.518;9.050;2022-07-29T11:06:12;3.47;;;3.17;;
14619;SDS011;32125;48.518;9.050;2022-07-29T11:08:38;5.68;;;3.42;;
14619;SDS011;32125;48.518;9.050;2022-07-29T11:13:46;3.03;;;2.50;;
14619;SDS011;32125;48.518;9.050;2022-07-29T11:16:13;2.90;;;2.50;;
14619;SDS011;32125;48.518;9.050;2022-07-29T11:21:37;3.75;;;2.53;;
14619;SDS011;32125;48.518;9.050;2022-07-29T11:24:19;8.30;;;2.50;;
14619;SDS011;32125;48.518;9.050;2022-07-29T11:27:06;3.85;;;2.70;;
14619;SDS011;32125;48.518;9.050;2022-07-29T11:29:39;3.22;;;2.42;;
14619;SDS011;32125;48.518;9.050;2022-07-29T11:32:16;3.50;;;2.53;;
14619;SDS011;32125;48.518;9.050;2022-07-29T11:34:45;4.47;;;2.15;;
14619;SDS011;32125;48.518;9.050;2022-07-29T11:37:16;3.80;;;1.98;;
14619;SDS011;32125;48.518;9.050;2022-07-29T11:39:44;4.10;;;1.95;;
14619;SDS011;32125;48.518;9.050;2022-07-29T11:47:25;3.60;;;2.00;;
14619;SDS011;32125;48.518;9.050;2022-07-29T11:49:52;7.07;;;2.05;;
14619;SDS011;32125;48.518;9.050;2022-07-29T11:52:20;2.72;;;1.90;;
14619;SDS011;32125;48.518;9.050;2022-07-29T11:54:47;4.97;;;1.90;;
14619;SDS011;32125;48.518;9.050;2022-07-29T11:57:17;2.75;;;1.98;;
14619;SDS011;32125;48.518;9.050;2022-07-29T11:59:48;6.03;;;2.15;;
14619;SDS011;32125;48.518;9.050;2022-07-29T12:02:19;7.45;;;2.10;;
14619;SDS011;32125;48.518;9.050;2022-07-29T12:05:02;4.38;;;1.80;;
14619;SDS011;32125;48.518;9.050;2022-07-29T12:07:33;1.80;;;1.70;;
14619;SDS011;32125;48.518;9.050;2022-07-29T12:09:59;2.10;;;1.70;;
14619;SDS011;32125;48.518;9.050;2022-07-29T12:12:25;2.17;;;1.90;;
14619;SDS011;32125;48.518;9.050;2022-07-29T12:14:51;2.00;;;1.90;;
14619;SDS011;32125;48.518;9.050;2022-07-29T12:19:56;3.97;;;1.98;;
14619;SDS011;32125;48.518;9.050;2022-07-29T12:22:30;3.67;;;1.90;;
14619;SDS011;32125;48.518;9.050;2022-07-29T12:25:02;2.28;;;2.15;;
14619;SDS011;32125;48.518;9.050;2022-07-29T12:27:34;2.47;;;2.28;;
14619;SDS011;32125;48.518;9.050;2022-07-29T12:30:01;2.78;;;2.22;;
14619;SDS011;32125;48.518;9.050;2022-07-29T12:32:38;2.60;;;2.40;;
14619;SDS011;32125;48.518;9.050;2022-07-29T12:35:18;4.43;;;2.72;;
14619;SDS011;32125;48.518;9.050;2022-07-29T12:37:45;3.60;;;2.63;;
14619;SDS011;32125;48.518;9.050;2022-07-29T12:40:16;3.63;;;3.00;;
14619;SDS011;32125;48.518;9.050;2022-07-29T12:45:30;3.30;;;3.03;;
14619;SDS011;32125;48.518;9.050;2022-07-29T12:47:58;3.25;;;2.90;;
14619;SDS011;32125;48.518;9.050;2022-07-29T12:50:26;3.95;;;2.75;;
14619;SDS011;32125;48.518;9.050;2022-07-29T12:52:52;2.63;;;2.42;;
14619;SDS011;32125;48.518;9.050;2022-07-29T12:58:04;3.17;;;2.88;;
14619;SDS011;32125;48.518;9.050;2022-07-29T13:00:30;5.35;;;2.90;;
14619;SDS011;32125;48.518;9.050;2022-07-29T13:02:56;2.75;;;2.55;;
14619;SDS011;32125;48.518;9.050;2022-07-29T13:05:42;3.67;;;2.45;;
14619;SDS011;32125;48.518;9.050;2022-07-29T13:08:13;3.20;;;2.50;;
14619;SDS011;32125;48.518;9.050;2022-07-29T13:10:40;3.28;;;2.97;;
14619;SDS011;32125;48.518;9.050;2022-07-29T13:13:09;4.22;;;2.42;;
14619;SDS011;32125;48.518;9.050;2022-07-29T13:15:40;3.10;;;2.80;;
14619;SDS011;32125;48.518;9.050;2022-07-29T13:18:29;3.17;;;2.83;;
14619;SDS011;32125;48.518;9.050;2022-07-29T13:20:57;4.85;;;2.70;;
14619;SDS011;32125;48.518;9.050;2022-07-29T13:23:23;3.72;;;3.17;;
14619;SDS011;32125;48.518;9.050;2022-07-29T13:25:49;4.03;;;3.10;;
14619;SDS011;32125;48.518;9.050;2022-07-29T13:28:15;5.63;;;3.40;;
14619;SDS011;32125;48.518;9.050;2022-07-29T13:30:41;3.45;;;3.15;;
14619;SDS011;32125;48.518;9.050;2022-07-29T13:33:07;3.40;;;3.20;;
14619;SDS011;32125;48.518;9.050;2022-07-29T13:35:33;5.22;;;3.10;;
14619;SDS011;32125;48.518;9.050;2022-07-29T13:37:58;4.32;;;3.30;;
14619;SDS011;32125;48.518;9.050;2022-07-29T13:40:24;4.15;;;3.25;;
14619;SDS011;32125;48.518;9.050;2022-07-29T13:42:50;4.47;;;3.20;;
14619;SDS011;32125;48.518;9.050;2022-07-29T13:45:16;3.38;;;3.08;;
14619;SDS011;32125;48.518;9.050;2022-07-29T13:47:42;4.25;;;3.30;;
14619;SDS011;32125;48.518;9.050;2022-07-29T13:50:08;4.47;;;3.28;;
14619;SDS011;32125;48.518;9.050;2022-07-29T13:52:36;3.97;;;3.38;;
14619;SDS011;32125;48.518;9.050;2022-07-29T13:55:03;4.15;;;3.00;;
14619;SDS011;32125;48.518;9.050;2022-07-29T13:57:31;3.60;;;3.30;;
14619;SDS011;32125;48.518;9.050;2022-07-29T13:59:57;3.58;;;3.28;;
14619;SDS011;32125;48.518;9.050;2022-07-29T14:02:23;4.35;;;3.50;;
14619;SDS011;32125;48.518;9.050;2022-07-29T14:04:49;3.50;;;3.20;;
14619;SDS011;32125;48.518;9.050;2022-07-29T14:07:14;3.17;;;2.80;;
14619;SDS011;32125;48.518;9.050;2022-07-29T14:09:43;3.40;;;3.10;;
14619;SDS011;32125;48.518;9.050;2022-07-29T14:12:09;3.88;;;3.40;;
14619;SDS011;32125;48.518;9.050;2022-07-29T14:14:34;3.67;;;3.00;;
14619;SDS011;32125;48.518;9.050;2022-07-29T14:17:05;4.28;;;3.08;;
14619;SDS011;32125;48.518;9.050;2022-07-29T14:19:34;4.50;;;3.10;;
14619;SDS011;32125;48.518;9.050;2022-07-29T14:22:01;5.00;;;3.20;;
14619;SDS011;32125;48.518;9.050;2022-07-29T14:24:28;3.53;;;3.00;;
14619;SDS011;32125;48.518;9.050;2022-07-29T14:26:53;3.40;;;3.17;;
14619;SDS011;32125;48.518;9.050;2022-07-29T14:29:19;4.53;;;2.83;;
14619;SDS011;32125;48.518;9.050;2022-07-29T14:31:45;3.67;;;3.10;;
14619;SDS011;32125;48.518;9.050;2022-07-29T14:34:10;3.80;;;3.25;;
14619;SDS011;32125;48.518;9.050;2022-07-29T14:36:36;3.65;;;3.35;;
14619;SDS011;32125;48.518;9.050;2022-07-29T14:39:04;4.75;;;3.10;;
14619;SDS011;32125;48.518;9.050;2022-07-29T14:41:30;3.80;;;3.50;;
14619;SDS011;32125;48.518;9.050;2022-07-29T14:43:58;3.60;;;3.35;;
14619;SDS011;32125;48.518;9.050;2022-07-29T14:46:25;3.78;;;3.47;;
14619;SDS011;32125;48.518;9.050;2022-07-29T14:48:51;4.03;;;3.50;;
14619;SDS011;32125;48.518;9.050;2022-07-29T14:51:17;3.63;;;3.20;;
14619;SDS011;32125;48.518;9.050;2022-07-29T14:53:44;3.75;;;3.38;;
14619;SDS011;32125;48.518;9.050;2022-07-29T14:56:10;3.38;;;2.97;;
14619;SDS011;32125;48.518;9.050;2022-07-29T14:58:38;3.47;;;3.13;;
14619;SDS011;32125;48.518;9.050;2022-07-29T15:01:06;3.55;;;3.10;;
14619;SDS011;32125;48.518;9.050;2022-07-29T15:03:34;2.80;;;2.60;;
14619;SDS011;32125;48.518;9.050;2022-07-29T15:06:04;3.63;;;3.20;;
14619;SDS011;32125;48.518;9.050;2022-07-29T15:08:33;3.53;;;3.08;;
14619;SDS011;32125;48.518;9.050;2022-07-29T15:10:58;4.20;;;3.88;;
14619;SDS011;32125;48.518;9.050;2022-07-29T15:13:25;3.08;;;2.88;;
14619;SDS011;32125;48.518;9.050;2022-07-29T15:15:54;3.45;;;3.00;;
14619;SDS011;32125;48.518;9.050;2022-07-29T15:18:20;3.35;;;3.05;;
14619;SDS011;32125;48.518;9.050;2022-07-29T15:20:50;4.47;;;3.97;;
14619;SDS011;32125;48.518;9.050;2022-07-29T15:23:15;3.58;;;3.28;;
14619;SDS011;32125;48.518;9.050;2022-07-29T15:25:43;3.65;;;3.10;;
14619;SDS011;32125;48.518;9.050;2022-07-29T15:28:11;3.45;;;2.75;;
14619;SDS011;32125;48.518;9.050;2022-07-29T15:30:40;4.03;;;3.25;;
14619;SDS011;32125;48.518;9.050;2022-07-29T15:33:06;3.38;;;3.17;;
14619;SDS011;32125;48.518;9.050;2022-07-29T15:35:36;3.38;;;3.08;;
14619;SDS011;32125;48.518;9.050;2022-07-29T15:38:02;4.38;;;3.20;;
14619;SDS011;32125;48.518;9.050;2022-07-29T15:40:31;4.03;;;3.63;;
14619;SDS011;32125;48.518;9.050;2022-07-29T15:42:59;4.63;;;3.92;;
14619;SDS011;32125;48.518;9.050;2022-07-29T15:45:34;5.38;;;3.80;;
14619;SDS011;32125;48.518;9.050;2022-07-29T15:48:00;3.88;;;3.50;;